sensor_id;sensor_type;location;lat;lon;timestamp;P1;durP1;ratioP1;P2;durP2;ratioP2
37831;SDS011;23671;38.090;-122.570;2023-04-25T00:02:23;7.35;;;2.53;;
37831;SDS011;23671;38.090;-122.570;2023-04-25T00:04:50;7.80;;;3.05;;
37831;SDS011;23671;38.090;-122.570;2023-04-25T00:07:17;7.70;;;2.75;;
37831;SDS011;23671;38.090;-122.570;2023-04-25T00:09:44;9.13;;;2.78;;
37831;SDS011;23671;38.090;-122.570;2023-04-25T00:12:11;10.27;;;3.08;;
37831;SDS011;23671;38.090;-122.570;2023-04-25T00:14:38;9.40;;;2.70;;
37831;SDS011;23671;38.090;-122.570;2023-04-25T00:17:06;8.02;;;2.50;;
37831;SDS011;23671;38.090;-122.570;2023-04-25T00:19:33;7.97;;;2.72;;
37831;SDS011;23671;38.090;-122.570;2023-04-25T00:22:00;10.13;;;3.60;;
37831;SDS011;23671;38.090;-122.570;2023-04-25T00:24:27;6.95;;;2.60;;
37831;SDS011;23671;38.090;-122.570;2023-04-25T00:26:54;8.13;;;2.75;;
37831;SDS011;23671;38.090;-122.570;2023-04-25T00:29:21;7.55;;;2.17;;
37831;SDS011;23671;38.090;-122.570;2023-04-25T00:31:48;6.65;;;2.80;;
37831;SDS011;23671;38.090;-122.570;2023-04-25T00:34:15;9.63;;;2.70;;
37831;SDS011;23671;38.090;-122.570;2023-04-25T00:36:42;8.10;;;2.70;;
37831;SDS011;23671;38.090;-122.570;2023-04-25T00:39:09;9.40;;;2.55;;
37831;SDS011;23671;38.090;-122.570;2023-04-25T00:41:36;9.73;;;2.55;;
37831;SDS011;23671;38.090;-122.570;2023-04-25T00:44:04;8.63;;;2.92;;
37831;SDS011;23671;38.090;-122.570;2023-04-25T00:46:35;8.55;;;2.83;;
37831;SDS011;23671;38.090;-122.570;2023-04-25T00:49:02;7.60;;;2.92;;
37831;SDS011;23671;38.090;-122.570;2023-04-25T00:51:29;9.57;;;2.90;;
37831;SDS011;23671;38.090;-122.570;2023-04-25T00:53:58;6.93;;;2.58;;
37831;SDS011;23671;38.090;-122.570;2023-04-25T00:56:25;8.50;;;2.78;;
37831;SDS011;23671;38.090;-122.570;2023-04-25T00:58:53;6.28;;;2.50;;
37831;SDS011;23671;38.090;-122.570;2023-04-25T01:01:21;5.82;;;2.78;;
37831;SDS011;23671;38.090;-122.570;2023-04-25T01:03:49;9.50;;;2.90;;
37831;SDS011;23671;38.090;-122.570;2023-04-25T01:06:17;9.90;;;2.47;;
37831;SDS011;23671;38.090;-122.570;2023-04-25T01:08:44;10.57;;;2.67;;
37831;SDS011;23671;38.090;-122.570;2023-04-25T01:11:11;9.48;;;2.80;;
37831;SDS011;23671;38.090;-122.570;2023-04-25T01:13:38;8.63;;;2.70;;
37831;SDS011;23671;38.090;-122.570;2023-04-25T01:16:05;7.57;;;2.67;;
37831;SDS011;23671;38.090;-122.570;2023-04-25T01:18:32;7.68;;;2.60;;
37831;SDS011;23671;38.090;-122.570;2023-04-25T01:21:06;10.10;;;3.03;;
37831;SDS011;23671;38.090;-122.570;2023-04-25T01:23:35;6.75;;;2.53;;
37831;SDS011;23671;38.090;-122.570;2023-04-25T01:26:03;7.47;;;2.75;;
37831;SDS011;23671;38.090;-122.570;2023-04-25T01:28:32;8.87;;;2.30;;
37831;SDS011;23671;38.090;-122.570;2023-04-25T01:31:00;11.57;;;2.55;;
37831;SDS011;23671;38.090;-122.570;2023-04-25T01:33:28;8.30;;;2.45;;
37831;SDS011;23671;38.090;-122.570;2023-04-25T01:35:56;9.20;;;2.73;;
37831;SDS011;23671;38.090;-122.570;2023-04-25T01:38:23;9.23;;;2.85;;
37831;SDS011;23671;38.090;-122.570;2023-04-25T01:40:50;10.02;;;2.72;;
37831;SDS011;23671;38.090;-122.570;2023-04-25T01:43:19;8.05;;;2.42;;
37831;SDS011;23671;38.090;-122.570;2023-04-25T01:45:46;7.07;;;2.55;;
37831;SDS011;23671;38.090;-122.570;2023-04-25T01:48:14;10.77;;;3.23;;
37831;SDS011;23671;38.090;-122.570;2023-04-25T01:50:42;7.53;;;2.17;;
37831;SDS011;23671;38.090;-122.570;2023-04-25T01:53:09;9.73;;;2.70;;
37831;SDS011;23671;38.090;-122.570;2023-04-25T01:55:38;10.13;;;2.65;;
37831;SDS011;23671;38.090;-122.570;2023-04-25T01:58:05;8.70;;;2.55;;
37831;SDS011;23671;38.090;-122.570;2023-04-25T02:00:35;9.50;;;2.50;;
37831;SDS011;23671;38.090;-122.570;2023-04-25T02:03:04;9.57;;;2.38;;
37831;SDS011;23671;38.090;-122.570;2023-04-25T02:05:34;7.82;;;2.55;;
37831;SDS011;23671;38.090;-122.570;2023-04-25T02:08:04;9.68;;;2.47;;
37831;SDS011;23671;38.090;-122.570;2023-04-25T02:10:33;7.65;;;2.17;;
37831;SDS011;23671;38.090;-122.570;2023-04-25T02:13:00;9.55;;;2.88;;
37831;SDS011;23671;38.090;-122.570;2023-04-25T02:15:27;8.27;;;2.15;;
37831;SDS011;23671;38.090;-122.570;2023-04-25T02:17:54;9.00;;;2.45;;
37831;SDS011;23671;38.090;-122.570;2023-04-25T02:20:22;11.30;;;2.72;;
37831;SDS011;23671;38.090;-122.570;2023-04-25T02:22:50;8.37;;;2.93;;
37831;SDS011;23671;38.090;-122.570;2023-04-25T02:25:18;9.38;;;2.70;;
37831;SDS011;23671;38.090;-122.570;2023-04-25T02:27:46;7.80;;;2.10;;
37831;SDS011;23671;38.090;-122.570;2023-04-25T02:30:13;8.95;;;2.70;;
37831;SDS011;23671;38.090;-122.570;2023-04-25T02:32:40;8.23;;;2.10;;
37831;SDS011;23671;38.090;-122.570;2023-04-25T02:35:08;7.55;;;2.40;;
37831;SDS011;23671;38.090;-122.570;2023-04-25T02:37:36;9.27;;;2.72;;
37831;SDS011;23671;38.090;-122.570;2023-04-25T02:40:05;8.80;;;2.60;;
37831;SDS011;23671;38.090;-122.570;2023-04-25T02:42:33;9.03;;;2.77;;
37831;SDS011;23671;38.090;-122.570;2023-04-25T02:45:00;8.23;;;2.65;;
37831;SDS011;23671;38.090;-122.570;2023-04-25T02:47:28;11.23;;;2.80;;
37831;SDS011;23671;38.090;-122.570;2023-04-25T02:49:55;5.75;;;2.00;;
37831;SDS011;23671;38.090;-122.570;2023-04-25T02:52:22;9.55;;;2.95;;
37831;SDS011;23671;38.090;-122.570;2023-04-25T02:54:50;10.75;;;2.75;;
37831;SDS011;23671;38.090;-122.570;2023-04-25T02:57:17;10.73;;;2.45;;
37831;SDS011;23671;38.090;-122.570;2023-04-25T02:59:44;10.18;;;2.58;;
37831;SDS011;23671;38.090;-122.570;2023-04-25T03:02:11;7.07;;;2.17;;
37831;SDS011;23671;38.090;-122.570;2023-04-25T03:04:38;8.85;;;2.28;;
37831;SDS011;23671;38.090;-122.570;2023-04-25T03:07:05;8.60;;;2.60;;
37831;SDS011;23671;38.090;-122.570;2023-04-25T03:09:32;8.90;;;2.42;;
37831;SDS011;23671;38.090;-122.570;2023-04-25T03:12:00;8.80;;;2.58;;
37831;SDS011;23671;38.090;-122.570;2023-04-25T03:14:27;7.93;;;2.35;;
37831;SDS011;23671;38.090;-122.570;2023-04-25T03:16:54;9.80;;;2.67;;
37831;SDS011;23671;38.090;-122.570;2023-04-25T03:19:21;7.57;;;2.03;;
37831;SDS011;23671;38.090;-122.570;2023-04-25T03:21:48;8.13;;;2.30;;
37831;SDS011;23671;38.090;-122.570;2023-04-25T03:24:15;6.25;;;2.10;;
37831;SDS011;23671;38.090;-122.570;2023-04-25T03:26:42;8.27;;;2.40;;
37831;SDS011;23671;38.090;-122.570;2023-04-25T03:29:09;7.07;;;2.25;;
37831;SDS011;23671;38.090;-122.570;2023-04-25T03:31:36;5.13;;;2.00;;
37831;SDS011;23671;38.090;-122.570;2023-04-25T03:34:03;6.63;;;2.13;;
37831;SDS011;23671;38.090;-122.570;2023-04-25T03:36:30;7.47;;;2.25;;
37831;SDS011;23671;38.090;-122.570;2023-04-25T03:38:57;7.25;;;2.15;;
37831;SDS011;23671;38.090;-122.570;2023-04-25T03:41:25;4.78;;;1.60;;
37831;SDS011;23671;38.090;-122.570;2023-04-25T03:43:53;8.35;;;2.28;;
37831;SDS011;23671;38.090;-122.570;2023-04-25T03:46:20;5.72;;;2.17;;
37831;SDS011;23671;38.090;-122.570;2023-04-25T03:48:47;8.45;;;2.33;;
37831;SDS011;23671;38.090;-122.570;2023-04-25T03:51:14;7.97;;;2.03;;
37831;SDS011;23671;38.090;-122.570;2023-04-25T03:53:41;5.40;;;1.73;;
37831;SDS011;23671;38.090;-122.570;2023-04-25T03:56:08;4.70;;;1.98;;
37831;SDS011;23671;38.090;-122.570;2023-04-25T03:58:35;6.82;;;2.20;;
37831;SDS011;23671;38.090;-122.570;2023-04-25T04:01:02;8.32;;;2.63;;
37831;SDS011;23671;38.090;-122.570;2023-04-25T04:03:35;8.02;;;2.70;;
37831;SDS011;23671;38.090;-122.570;2023-04-25T04:06:03;6.97;;;1.80;;
37831;SDS011;23671;38.090;-122.570;2023-04-25T04:08:31;8.10;;;2.60;;
37831;SDS011;23671;38.090;-122.570;2023-04-25T04:10:59;6.55;;;1.95;;
37831;SDS011;23671;38.090;-122.570;2023-04-25T04:13:26;7.50;;;2.33;;
37831;SDS011;23671;38.090;-122.570;2023-04-25T04:15:54;7.43;;;2.40;;
37831;SDS011;23671;38.090;-122.570;2023-04-25T04:18:22;5.93;;;1.98;;
37831;SDS011;23671;38.090;-122.570;2023-04-25T04:20:49;8.80;;;2.67;;
37831;SDS011;23671;38.090;-122.570;2023-04-25T04:23:16;6.68;;;2.00;;
37831;SDS011;23671;38.090;-122.570;2023-04-25T04:25:44;6.30;;;2.40;;
37831;SDS011;23671;38.090;-122.570;2023-04-25T04:28:12;7.15;;;2.00;;
37831;SDS011;23671;38.090;-122.570;2023-04-25T04:30:39;5.78;;;1.85;;
37831;SDS011;23671;38.090;-122.570;2023-04-25T04:33:06;7.55;;;2.17;;
37831;SDS011;23671;38.090;-122.570;2023-04-25T04:35:34;8.05;;;2.30;;
37831;SDS011;23671;38.090;-122.570;2023-04-25T04:38:01;9.90;;;2.13;;
37831;SDS011;23671;38.090;-122.570;2023-04-25T04:40:28;6.40;;;2.10;;
37831;SDS011;23671;38.090;-122.570;2023-04-25T04:42:58;6.35;;;2.22;;
37831;SDS011;23671;38.090;-122.570;2023-04-25T04:45:25;7.15;;;2.17;;
37831;SDS011;23671;38.090;-122.570;2023-04-25T04:47:52;8.60;;;2.28;;
37831;SDS011;23671;38.090;-122.570;2023-04-25T04:50:20;5.75;;;2.05;;
37831;SDS011;23671;38.090;-122.570;2023-04-25T04:52:48;7.43;;;2.13;;
37831;SDS011;23671;38.090;-122.570;2023-04-25T04:55:15;6.65;;;2.03;;
37831;SDS011;23671;38.090;-122.570;2023-04-25T04:57:42;8.02;;;2.17;;
37831;SDS011;23671;38.090;-122.570;2023-04-25T05:00:10;5.82;;;1.83;;
37831;SDS011;23671;38.090;-122.570;2023-04-25T05:02:41;6.47;;;2.17;;
37831;SDS011;23671;38.090;-122.570;2023-04-25T05:05:08;6.38;;;2.08;;
37831;SDS011;23671;38.090;-122.570;2023-04-25T05:07:35;4.40;;;1.73;;
37831;SDS011;23671;38.090;-122.570;2023-04-25T05:10:03;5.72;;;2.00;;
37831;SDS011;23671;38.090;-122.570;2023-04-25T05:12:30;5.68;;;2.20;;
37831;SDS011;23671;38.090;-122.570;2023-04-25T05:15:02;4.38;;;1.67;;
37831;SDS011;23671;38.090;-122.570;2023-04-25T05:17:29;5.88;;;2.03;;
37831;SDS011;23671;38.090;-122.570;2023-04-25T05:19:58;5.60;;;2.00;;
37831;SDS011;23671;38.090;-122.570;2023-04-25T05:22:26;5.57;;;2.00;;
37831;SDS011;23671;38.090;-122.570;2023-04-25T05:24:53;6.55;;;2.80;;
37831;SDS011;23671;38.090;-122.570;2023-04-25T05:27:21;9.60;;;2.25;;
37831;SDS011;23671;38.090;-122.570;2023-04-25T05:29:48;6.25;;;2.17;;
37831;SDS011;23671;38.090;-122.570;2023-04-25T05:32:15;7.32;;;2.50;;
37831;SDS011;23671;38.090;-122.570;2023-04-25T05:34:43;7.00;;;2.55;;
37831;SDS011;23671;38.090;-122.570;2023-04-25T05:37:10;5.47;;;2.00;;
37831;SDS011;23671;38.090;-122.570;2023-04-25T05:39:37;9.20;;;2.15;;
37831;SDS011;23671;38.090;-122.570;2023-04-25T05:42:04;9.65;;;2.50;;
37831;SDS011;23671;38.090;-122.570;2023-04-25T05:44:31;6.88;;;2.58;;
37831;SDS011;23671;38.090;-122.570;2023-04-25T05:46:58;7.97;;;1.90;;
37831;SDS011;23671;38.090;-122.570;2023-04-25T05:49:25;6.47;;;2.20;;
37831;SDS011;23671;38.090;-122.570;2023-04-25T05:51:52;4.65;;;2.15;;
37831;SDS011;23671;38.090;-122.570;2023-04-25T05:54:19;6.03;;;2.13;;
37831;SDS011;23671;38.090;-122.570;2023-04-25T05:56:47;8.32;;;2.35;;
37831;SDS011;23671;38.090;-122.570;2023-04-25T05:59:14;8.32;;;2.42;;
37831;SDS011;23671;38.090;-122.570;2023-04-25T06:01:41;4.82;;;1.95;;
37831;SDS011;23671;38.090;-122.570;2023-04-25T06:04:08;5.40;;;2.40;;
37831;SDS011;23671;38.090;-122.570;2023-04-25T06:06:35;7.57;;;2.40;;
37831;SDS011;23671;38.090;-122.570;2023-04-25T06:09:02;4.65;;;2.00;;
37831;SDS011;23671;38.090;-122.570;2023-04-25T06:11:29;6.75;;;1.95;;
37831;SDS011;23671;38.090;-122.570;2023-04-25T06:13:57;9.75;;;2.10;;
37831;SDS011;23671;38.090;-122.570;2023-04-25T06:16:24;5.18;;;1.70;;
37831;SDS011;23671;38.090;-122.570;2023-04-25T06:18:51;5.15;;;2.20;;
37831;SDS011;23671;38.090;-122.570;2023-04-25T06:21:18;5.32;;;1.75;;
37831;SDS011;23671;38.090;-122.570;2023-04-25T06:23:45;5.15;;;1.73;;
37831;SDS011;23671;38.090;-122.570;2023-04-25T06:26:12;6.22;;;2.13;;
37831;SDS011;23671;38.090;-122.570;2023-04-25T06:28:39;6.60;;;2.33;;
37831;SDS011;23671;38.090;-122.570;2023-04-25T06:31:06;7.85;;;2.42;;
37831;SDS011;23671;38.090;-122.570;2023-04-25T06:33:34;5.63;;;1.95;;
37831;SDS011;23671;38.090;-122.570;2023-04-25T06:36:01;7.82;;;2.70;;
37831;SDS011;23671;38.090;-122.570;2023-04-25T06:38:28;4.97;;;2.22;;
37831;SDS011;23671;38.090;-122.570;2023-04-25T06:40:56;4.97;;;1.90;;
37831;SDS011;23671;38.090;-122.570;2023-04-25T06:43:23;5.90;;;1.90;;
37831;SDS011;23671;38.090;-122.570;2023-04-25T06:45:50;7.40;;;1.88;;
37831;SDS011;23671;38.090;-122.570;2023-04-25T06:48:17;7.90;;;2.08;;
37831;SDS011;23671;38.090;-122.570;2023-04-25T06:50:45;6.32;;;2.00;;
37831;SDS011;23671;38.090;-122.570;2023-04-25T06:53:12;5.85;;;1.80;;
37831;SDS011;23671;38.090;-122.570;2023-04-25T06:55:39;4.63;;;1.80;;
37831;SDS011;23671;38.090;-122.570;2023-04-25T06:58:06;3.88;;;1.90;;
37831;SDS011;23671;38.090;-122.570;2023-04-25T07:00:33;4.57;;;1.70;;
37831;SDS011;23671;38.090;-122.570;2023-04-25T07:03:01;6.22;;;2.42;;
37831;SDS011;23671;38.090;-122.570;2023-04-25T07:05:28;4.97;;;1.50;;
37831;SDS011;23671;38.090;-122.570;2023-04-25T07:07:55;8.13;;;2.10;;
37831;SDS011;23671;38.090;-122.570;2023-04-25T07:10:22;5.85;;;1.80;;
37831;SDS011;23671;38.090;-122.570;2023-04-25T07:12:50;6.45;;;1.90;;
37831;SDS011;23671;38.090;-122.570;2023-04-25T07:15:17;5.65;;;2.03;;
37831;SDS011;23671;38.090;-122.570;2023-04-25T07:17:44;4.72;;;1.67;;
37831;SDS011;23671;38.090;-122.570;2023-04-25T07:20:12;5.68;;;2.10;;
37831;SDS011;23671;38.090;-122.570;2023-04-25T07:22:41;8.13;;;2.67;;
37831;SDS011;23671;38.090;-122.570;2023-04-25T07:25:09;5.68;;;2.13;;
37831;SDS011;23671;38.090;-122.570;2023-04-25T07:27:36;7.00;;;1.90;;
37831;SDS011;23671;38.090;-122.570;2023-04-25T07:30:04;5.80;;;1.80;;
37831;SDS011;23671;38.090;-122.570;2023-04-25T07:32:32;4.30;;;1.90;;
37831;SDS011;23671;38.090;-122.570;2023-04-25T07:34:59;3.97;;;1.42;;
37831;SDS011;23671;38.090;-122.570;2023-04-25T07:37:27;5.30;;;2.00;;
37831;SDS011;23671;38.090;-122.570;2023-04-25T07:39:54;7.82;;;2.10;;
37831;SDS011;23671;38.090;-122.570;2023-04-25T07:42:21;5.78;;;1.90;;
37831;SDS011;23671;38.090;-122.570;2023-04-25T07:44:48;4.25;;;1.80;;
37831;SDS011;23671;38.090;-122.570;2023-04-25T07:47:17;5.20;;;1.70;;
37831;SDS011;23671;38.090;-122.570;2023-04-25T07:49:47;6.82;;;2.28;;
37831;SDS011;23671;38.090;-122.570;2023-04-25T07:52:14;4.72;;;1.80;;
37831;SDS011;23671;38.090;-122.570;2023-04-25T07:54:41;7.60;;;2.03;;
37831;SDS011;23671;38.090;-122.570;2023-04-25T07:57:08;5.15;;;2.10;;
37831;SDS011;23671;38.090;-122.570;2023-04-25T07:59:36;5.70;;;2.13;;
37831;SDS011;23671;38.090;-122.570;2023-04-25T08:02:03;4.55;;;1.75;;
37831;SDS011;23671;38.090;-122.570;2023-04-25T08:04:30;7.32;;;2.20;;
37831;SDS011;23671;38.090;-122.570;2023-04-25T08:06:57;5.13;;;1.70;;
37831;SDS011;23671;38.090;-122.570;2023-04-25T08:09:24;6.30;;;1.98;;
37831;SDS011;23671;38.090;-122.570;2023-04-25T08:11:51;5.80;;;1.88;;
37831;SDS011;23671;38.090;-122.570;2023-04-25T08:14:18;5.05;;;2.15;;
37831;SDS011;23671;38.090;-122.570;2023-04-25T08:16:45;6.20;;;2.20;;
37831;SDS011;23671;38.090;-122.570;2023-04-25T08:19:12;7.85;;;2.17;;
37831;SDS011;23671;38.090;-122.570;2023-04-25T08:21:39;4.82;;;1.55;;
37831;SDS011;23671;38.090;-122.570;2023-04-25T08:24:06;6.20;;;2.17;;
37831;SDS011;23671;38.090;-122.570;2023-04-25T08:26:33;3.67;;;1.77;;
37831;SDS011;23671;38.090;-122.570;2023-04-25T08:29:02;5.72;;;1.70;;
37831;SDS011;23671;38.090;-122.570;2023-04-25T08:31:30;5.80;;;2.00;;
37831;SDS011;23671;38.090;-122.570;2023-04-25T08:33:57;5.40;;;1.65;;
37831;SDS011;23671;38.090;-122.570;2023-04-25T08:36:24;5.10;;;1.73;;
37831;SDS011;23671;38.090;-122.570;2023-04-25T08:38:53;6.90;;;2.23;;
37831;SDS011;23671;38.090;-122.570;2023-04-25T08:41:20;3.67;;;1.60;;
37831;SDS011;23671;38.090;-122.570;2023-04-25T08:43:48;3.85;;;1.50;;
37831;SDS011;23671;38.090;-122.570;2023-04-25T08:46:19;6.53;;;1.60;;
37831;SDS011;23671;38.090;-122.570;2023-04-25T08:48:46;5.85;;;2.03;;
37831;SDS011;23671;38.090;-122.570;2023-04-25T08:51:23;8.48;;;2.10;;
37831;SDS011;23671;38.090;-122.570;2023-04-25T08:53:51;7.63;;;1.80;;
37831;SDS011;23671;38.090;-122.570;2023-04-25T08:56:19;3.92;;;1.42;;
37831;SDS011;23671;38.090;-122.570;2023-04-25T09:01:18;6.60;;;1.90;;
37831;SDS011;23671;38.090;-122.570;2023-04-25T09:03:45;3.80;;;1.67;;
37831;SDS011;23671;38.090;-122.570;2023-04-25T09:06:12;4.97;;;1.90;;
37831;SDS011;23671;38.090;-122.570;2023-04-25T09:08:41;8.75;;;2.15;;
37831;SDS011;23671;38.090;-122.570;2023-04-25T09:11:08;6.28;;;1.85;;
37831;SDS011;23671;38.090;-122.570;2023-04-25T09:13:35;6.20;;;1.70;;
37831;SDS011;23671;38.090;-122.570;2023-04-25T09:16:02;6.05;;;1.67;;
37831;SDS011;23671;38.090;-122.570;2023-04-25T09:18:33;7.35;;;1.98;;
37831;SDS011;23671;38.090;-122.570;2023-04-25T09:21:08;6.47;;;1.52;;
37831;SDS011;23671;38.090;-122.570;2023-04-25T09:23:38;5.32;;;1.80;;
37831;SDS011;23671;38.090;-122.570;2023-04-25T09:26:16;4.70;;;1.67;;
37831;SDS011;23671;38.090;-122.570;2023-04-25T09:28:45;4.13;;;1.67;;
37831;SDS011;23671;38.090;-122.570;2023-04-25T09:31:24;4.20;;;1.88;;
37831;SDS011;23671;38.090;-122.570;2023-04-25T09:33:58;5.80;;;1.80;;
37831;SDS011;23671;38.090;-122.570;2023-04-25T09:36:29;5.53;;;2.05;;
37831;SDS011;23671;38.090;-122.570;2023-04-25T09:38:57;5.30;;;1.80;;
37831;SDS011;23671;38.090;-122.570;2023-04-25T09:41:26;4.25;;;1.67;;
37831;SDS011;23671;38.090;-122.570;2023-04-25T09:43:56;4.50;;;1.50;;
37831;SDS011;23671;38.090;-122.570;2023-04-25T09:46:32;5.07;;;1.60;;
37831;SDS011;23671;38.090;-122.570;2023-04-25T09:49:05;5.25;;;2.10;;
37831;SDS011;23671;38.090;-122.570;2023-04-25T09:51:33;5.80;;;1.75;;
37831;SDS011;23671;38.090;-122.570;2023-04-25T09:54:00;5.07;;;1.73;;
37831;SDS011;23671;38.090;-122.570;2023-04-25T09:56:28;4.55;;;1.75;;
37831;SDS011;23671;38.090;-122.570;2023-04-25T09:59:01;4.38;;;1.55;;
37831;SDS011;23671;38.090;-122.570;2023-04-25T10:01:28;8.52;;;1.90;;
37831;SDS011;23671;38.090;-122.570;2023-04-25T10:03:56;5.30;;;1.67;;
37831;SDS011;23671;38.090;-122.570;2023-04-25T10:06:24;4.18;;;1.48;;
37831;SDS011;23671;38.090;-122.570;2023-04-25T10:11:21;6.35;;;2.28;;
37831;SDS011;23671;38.090;-122.570;2023-04-25T10:13:50;5.55;;;1.75;;
37831;SDS011;23671;38.090;-122.570;2023-04-25T10:16:18;3.88;;;1.50;;
37831;SDS011;23671;38.090;-122.570;2023-04-25T10:18:46;5.53;;;2.05;;
37831;SDS011;23671;38.090;-122.570;2023-04-25T10:21:13;4.70;;;2.03;;
37831;SDS011;23671;38.090;-122.570;2023-04-25T10:26:10;6.18;;;1.83;;
37831;SDS011;23671;38.090;-122.570;2023-04-25T10:28:57;2.92;;;1.30;;
37831;SDS011;23671;38.090;-122.570;2023-04-25T10:31:26;6.95;;;1.92;;
37831;SDS011;23671;38.090;-122.570;2023-04-25T10:33:56;5.78;;;1.50;;
37831;SDS011;23671;38.090;-122.570;2023-04-25T10:36:23;4.40;;;1.52;;
37831;SDS011;23671;38.090;-122.570;2023-04-25T10:38:54;4.53;;;1.55;;
37831;SDS011;23671;38.090;-122.570;2023-04-25T10:41:23;4.78;;;1.50;;
37831;SDS011;23671;38.090;-122.570;2023-04-25T10:43:50;3.17;;;1.50;;
37831;SDS011;23671;38.090;-122.570;2023-04-25T10:46:28;4.63;;;1.70;;
37831;SDS011;23671;38.090;-122.570;2023-04-25T10:48:59;4.35;;;1.63;;
37831;SDS011;23671;38.090;-122.570;2023-04-25T10:51:31;4.05;;;1.45;;
37831;SDS011;23671;38.090;-122.570;2023-04-25T10:56:38;3.40;;;1.27;;
37831;SDS011;23671;38.090;-122.570;2023-04-25T11:01:40;5.50;;;1.83;;
37831;SDS011;23671;38.090;-122.570;2023-04-25T11:04:29;3.65;;;1.55;;
37831;SDS011;23671;38.090;-122.570;2023-04-25T11:06:58;8.32;;;2.00;;
37831;SDS011;23671;38.090;-122.570;2023-04-25T11:10:05;5.30;;;1.70;;
37831;SDS011;23671;38.090;-122.570;2023-04-25T11:12:33;6.30;;;2.05;;
37831;SDS011;23671;38.090;-122.570;2023-04-25T11:15:03;4.88;;;1.58;;
37831;SDS011;23671;38.090;-122.570;2023-04-25T11:17:32;5.35;;;1.90;;
37831;SDS011;23671;38.090;-122.570;2023-04-25T11:20:00;7.45;;;1.75;;
37831;SDS011;23671;38.090;-122.570;2023-04-25T11:22:32;6.20;;;1.60;;
37831;SDS011;23671;38.090;-122.570;2023-04-25T11:25:09;6.03;;;1.85;;
37831;SDS011;23671;38.090;-122.570;2023-04-25T11:27:38;5.93;;;1.55;;
37831;SDS011;23671;38.090;-122.570;2023-04-25T11:30:18;5.45;;;1.95;;
37831;SDS011;23671;38.090;-122.570;2023-04-25T11:32:46;6.47;;;1.77;;
37831;SDS011;23671;38.090;-122.570;2023-04-25T11:35:13;5.88;;;1.70;;
37831;SDS011;23671;38.090;-122.570;2023-04-25T11:37:41;6.50;;;1.75;;
37831;SDS011;23671;38.090;-122.570;2023-04-25T11:40:10;6.78;;;1.90;;
37831;SDS011;23671;38.090;-122.570;2023-04-25T11:42:38;2.90;;;1.35;;
37831;SDS011;23671;38.090;-122.570;2023-04-25T11:45:08;6.38;;;1.80;;
37831;SDS011;23671;38.090;-122.570;2023-04-25T11:47:36;6.30;;;1.60;;
37831;SDS011;23671;38.090;-122.570;2023-04-25T11:50:04;4.22;;;1.60;;
37831;SDS011;23671;38.090;-122.570;2023-04-25T11:52:37;4.80;;;1.60;;
37831;SDS011;23671;38.090;-122.570;2023-04-25T11:55:09;6.70;;;1.63;;
37831;SDS011;23671;38.090;-122.570;2023-04-25T11:57:41;3.88;;;1.52;;
37831;SDS011;23671;38.090;-122.570;2023-04-25T12:00:16;7.75;;;1.85;;
37831;SDS011;23671;38.090;-122.570;2023-04-25T12:02:46;5.45;;;1.63;;
37831;SDS011;23671;38.090;-122.570;2023-04-25T12:05:18;4.22;;;1.52;;
37831;SDS011;23671;38.090;-122.570;2023-04-25T12:07:46;7.00;;;1.75;;
37831;SDS011;23671;38.090;-122.570;2023-04-25T12:10:13;5.95;;;1.63;;
37831;SDS011;23671;38.090;-122.570;2023-04-25T12:12:43;4.70;;;1.52;;
37831;SDS011;23671;38.090;-122.570;2023-04-25T12:17:40;6.25;;;1.73;;
37831;SDS011;23671;38.090;-122.570;2023-04-25T12:20:11;6.32;;;1.70;;
37831;SDS011;23671;38.090;-122.570;2023-04-25T12:22:41;5.95;;;1.88;;
37831;SDS011;23671;38.090;-122.570;2023-04-25T12:25:13;4.72;;;1.60;;
37831;SDS011;23671;38.090;-122.570;2023-04-25T12:28:17;3.78;;;1.63;;
37831;SDS011;23671;38.090;-122.570;2023-04-25T12:33:30;4.90;;;1.45;;
37831;SDS011;23671;38.090;-122.570;2023-04-25T12:36:05;6.72;;;1.85;;
37831;SDS011;23671;38.090;-122.570;2023-04-25T12:38:37;5.43;;;1.90;;
37831;SDS011;23671;38.090;-122.570;2023-04-25T12:41:06;4.43;;;1.60;;
37831;SDS011;23671;38.090;-122.570;2023-04-25T12:43:34;9.35;;;2.10;;
37831;SDS011;23671;38.090;-122.570;2023-04-25T12:46:01;4.07;;;1.58;;
37831;SDS011;23671;38.090;-122.570;2023-04-25T12:48:28;6.32;;;1.50;;
37831;SDS011;23671;38.090;-122.570;2023-04-25T12:50:55;5.55;;;1.60;;
37831;SDS011;23671;38.090;-122.570;2023-04-25T12:53:22;4.70;;;1.35;;
37831;SDS011;23671;38.090;-122.570;2023-04-25T12:55:50;3.30;;;1.20;;
37831;SDS011;23671;38.090;-122.570;2023-04-25T12:58:17;4.65;;;1.77;;
37831;SDS011;23671;38.090;-122.570;2023-04-25T13:00:45;4.65;;;1.70;;
37831;SDS011;23671;38.090;-122.570;2023-04-25T13:03:12;4.40;;;1.50;;
37831;SDS011;23671;38.090;-122.570;2023-04-25T13:05:40;6.68;;;1.45;;
37831;SDS011;23671;38.090;-122.570;2023-04-25T13:08:07;3.05;;;1.40;;
37831;SDS011;23671;38.090;-122.570;2023-04-25T13:10:34;4.60;;;1.45;;
37831;SDS011;23671;38.090;-122.570;2023-04-25T13:13:03;3.78;;;1.42;;
37831;SDS011;23671;38.090;-122.570;2023-04-25T13:15:30;4.85;;;2.05;;
37831;SDS011;23671;38.090;-122.570;2023-04-25T13:17:57;4.15;;;1.70;;
37831;SDS011;23671;38.090;-122.570;2023-04-25T13:20:24;4.65;;;1.48;;
37831;SDS011;23671;38.090;-122.570;2023-04-25T13:22:51;5.78;;;1.60;;
37831;SDS011;23671;38.090;-122.570;2023-04-25T13:25:18;5.05;;;1.70;;
37831;SDS011;23671;38.090;-122.570;2023-04-25T13:27:47;3.70;;;1.75;;
37831;SDS011;23671;38.090;-122.570;2023-04-25T13:30:14;5.68;;;1.60;;
37831;SDS011;23671;38.090;-122.570;2023-04-25T13:32:41;3.50;;;1.33;;
37831;SDS011;23671;38.090;-122.570;2023-04-25T13:35:10;6.40;;;1.77;;
37831;SDS011;23671;38.090;-122.570;2023-04-25T13:37:39;4.75;;;1.33;;
37831;SDS011;23671;38.090;-122.570;2023-04-25T13:40:07;5.03;;;1.58;;
37831;SDS011;23671;38.090;-122.570;2023-04-25T13:42:37;5.53;;;1.50;;
37831;SDS011;23671;38.090;-122.570;2023-04-25T13:45:04;6.35;;;1.75;;
37831;SDS011;23671;38.090;-122.570;2023-04-25T13:47:33;7.93;;;1.87;;
37831;SDS011;23671;38.090;-122.570;2023-04-25T13:50:01;4.75;;;1.80;;
37831;SDS011;23671;38.090;-122.570;2023-04-25T13:52:28;5.38;;;1.65;;
37831;SDS011;23671;38.090;-122.570;2023-04-25T13:54:55;4.13;;;1.50;;
37831;SDS011;23671;38.090;-122.570;2023-04-25T13:57:23;4.88;;;1.60;;
37831;SDS011;23671;38.090;-122.570;2023-04-25T13:59:51;5.32;;;2.05;;
37831;SDS011;23671;38.090;-122.570;2023-04-25T14:02:18;4.15;;;1.52;;
37831;SDS011;23671;38.090;-122.570;2023-04-25T14:04:45;7.60;;;1.63;;
37831;SDS011;23671;38.090;-122.570;2023-04-25T14:07:13;9.00;;;2.03;;
37831;SDS011;23671;38.090;-122.570;2023-04-25T14:09:44;6.38;;;2.10;;
37831;SDS011;23671;38.090;-122.570;2023-04-25T14:12:11;7.10;;;2.08;;
37831;SDS011;23671;38.090;-122.570;2023-04-25T14:14:38;5.57;;;1.58;;
37831;SDS011;23671;38.090;-122.570;2023-04-25T14:17:05;6.35;;;1.25;;
37831;SDS011;23671;38.090;-122.570;2023-04-25T14:19:33;5.22;;;1.55;;
37831;SDS011;23671;38.090;-122.570;2023-04-25T14:22:01;3.95;;;1.27;;
37831;SDS011;23671;38.090;-122.570;2023-04-25T14:24:28;4.00;;;1.48;;
37831;SDS011;23671;38.090;-122.570;2023-04-25T14:26:55;6.05;;;1.88;;
37831;SDS011;23671;38.090;-122.570;2023-04-25T14:29:22;4.35;;;1.48;;
37831;SDS011;23671;38.090;-122.570;2023-04-25T14:31:49;4.05;;;1.30;;
37831;SDS011;23671;38.090;-122.570;2023-04-25T14:34:16;4.88;;;1.80;;